createdAt,value
2023-01-07T00:01:40.466Z,100.00
2023-01-07T00:04:10.649Z,100.00
2023-01-07T00:06:39.727Z,100.00
2023-01-07T00:09:08.562Z,100.00
2023-01-07T00:11:37.111Z,100.00
2023-01-07T00:14:06.343Z,100.00
2023-01-07T00:16:34.883Z,100.00
2023-01-07T00:19:04.171Z,100.00
2023-01-07T00:21:31.580Z,100.00
2023-01-07T00:24:00.886Z,100.00
2023-01-07T00:26:30.482Z,100.00
2023-01-07T00:28:57.624Z,100.00
2023-01-07T00:31:27.502Z,100.00
2023-01-07T00:33:54.642Z,100.00
2023-01-07T00:36:23.213Z,100.00
2023-01-07T00:39:20.448Z,100.00
2023-01-07T00:42:07.132Z,100.00
2023-01-07T00:44:34.614Z,100.00
2023-01-07T00:47:01.338Z,100.00
2023-01-07T00:49:28.155Z,100.00
2023-01-07T00:51:54.727Z,100.00
2023-01-07T00:54:22.056Z,100.00
2023-01-07T00:56:48.534Z,100.00
2023-01-07T00:59:16.372Z,100.00
2023-01-07T01:01:44.199Z,100.00
2023-01-07T01:04:10.897Z,100.00
2023-01-07T01:06:37.390Z,100.00
2023-01-07T01:09:04.073Z,100.00
2023-01-07T01:11:31.094Z,100.00
2023-01-07T01:13:57.562Z,100.00
2023-01-07T01:16:24.095Z,100.00
2023-01-07T01:18:51.061Z,100.00
2023-01-07T01:21:18.738Z,100.00
2023-01-07T01:23:45.878Z,100.00
2023-01-07T01:26:15.380Z,100.00
2023-01-07T01:28:43.271Z,100.00
2023-01-07T01:31:10.759Z,100.00
2023-01-07T01:33:45.454Z,100.00
2023-01-07T01:36:13.454Z,100.00
2023-01-07T01:38:41.406Z,100.00
2023-01-07T01:41:08.817Z,100.00
2023-01-07T01:43:41.498Z,100.00
2023-01-07T01:46:35.053Z,100.00
2023-01-07T01:49:07.515Z,100.00
2023-01-07T01:51:39.487Z,100.00
2023-01-07T01:54:10.400Z,100.00
2023-01-07T01:57:01.615Z,100.00
2023-01-07T01:59:50.615Z,100.00
2023-01-07T02:02:44.159Z,100.00
2023-01-07T02:05:40.563Z,100.00
2023-01-07T02:08:27.517Z,100.00
2023-01-07T02:11:46.539Z,100.00
2023-01-07T02:14:29.118Z,100.00
2023-01-07T02:17:01.744Z,100.00
2023-01-07T02:19:53.678Z,100.00
2023-01-07T02:22:47.200Z,100.00
2023-01-07T02:25:24.295Z,100.00
2023-01-07T02:28:11.272Z,100.00
2023-01-07T02:31:12.903Z,100.00
2023-01-07T02:34:18.116Z,100.00
2023-01-07T02:37:02.048Z,100.00
2023-01-07T02:39:33.285Z,100.00
2023-01-07T02:42:07.830Z,100.00
2023-01-07T02:44:45.313Z,100.00
2023-01-07T02:47:38.034Z,100.00
2023-01-07T02:50:07.254Z,100.00
2023-01-07T02:52:36.932Z,100.00
2023-01-07T02:55:19.496Z,100.00
2023-01-07T02:58:14.223Z,100.00
2023-01-07T03:00:51.055Z,100.00
2023-01-07T03:03:49.097Z,100.00
2023-01-07T03:06:30.730Z,100.00
2023-01-07T03:09:09.154Z,100.00
2023-01-07T03:11:45.149Z,100.00
2023-01-07T03:14:20.245Z,100.00
2023-01-07T03:16:55.312Z,100.00
2023-01-07T03:19:30.441Z,100.00
2023-01-07T03:22:02.462Z,100.00
2023-01-07T03:24:31.259Z,100.00
2023-01-07T03:27:01.473Z,100.00
2023-01-07T03:29:29.175Z,100.00
2023-01-07T03:32:12.449Z,100.00
2023-01-07T03:34:40.440Z,100.00
2023-01-07T03:37:22.326Z,100.00
2023-01-07T03:39:50.377Z,100.00
2023-01-07T03:42:41.435Z,100.00
2023-01-07T03:45:28.856Z,100.00
2023-01-07T03:47:58.702Z,100.00
2023-01-07T03:50:31.849Z,100.00
2023-01-07T03:52:58.258Z,100.00
2023-01-07T03:55:25.482Z,100.00
2023-01-07T03:57:56.134Z,100.00
2023-01-07T04:00:24.831Z,100.00
2023-01-07T04:02:58.218Z,100.00
2023-01-07T04:05:33.125Z,100.00
2023-01-07T04:08:00.359Z,100.00
2023-01-07T04:10:32.050Z,100.00
2023-01-07T04:12:58.683Z,100.00
2023-01-07T04:15:25.657Z,100.00
2023-01-07T04:17:52.461Z,100.00
2023-01-07T04:20:19.070Z,100.00
2023-01-07T04:22:46.274Z,100.00
2023-01-07T04:25:13.148Z,100.00
2023-01-07T04:27:40.078Z,100.00
2023-01-07T04:30:09.885Z,100.00
2023-01-07T04:32:37.211Z,100.00
2023-01-07T04:35:04.184Z,100.00
2023-01-07T04:37:31.800Z,100.00
2023-01-07T04:39:58.521Z,100.00
2023-01-07T04:42:28.174Z,100.00
2023-01-07T04:44:55.229Z,100.00
2023-01-07T04:47:22.492Z,100.00
2023-01-07T04:49:50.165Z,100.00
2023-01-07T04:52:16.862Z,100.00
2023-01-07T04:54:43.889Z,100.00
2023-01-07T04:57:10.504Z,100.00
2023-01-07T04:59:37.719Z,100.00
2023-01-07T05:02:05.757Z,100.00
2023-01-07T05:04:32.428Z,100.00
2023-01-07T05:06:59.808Z,100.00
2023-01-07T05:09:26.938Z,100.00
2023-01-07T05:11:53.512Z,100.00
2023-01-07T05:14:20.658Z,100.00
2023-01-07T05:16:51.338Z,100.00
2023-01-07T05:19:19.274Z,100.00
2023-01-07T05:21:48.266Z,100.00
2023-01-07T05:24:16.378Z,100.00
2023-01-07T05:26:44.255Z,100.00
2023-01-07T05:29:11.314Z,100.00
2023-01-07T05:31:41.107Z,100.00
2023-01-07T05:34:08.081Z,100.00
2023-01-07T05:36:35.738Z,100.00
2023-01-07T05:39:04.084Z,100.00
2023-01-07T05:41:30.735Z,100.00
2023-01-07T05:43:57.214Z,100.00
2023-01-07T05:46:24.597Z,100.00
2023-01-07T05:48:51.364Z,100.00
2023-01-07T05:51:17.833Z,100.00
2023-01-07T05:53:44.802Z,100.00
2023-01-07T05:56:11.521Z,100.00
2023-01-07T05:58:38.054Z,100.00
2023-01-07T06:01:05.408Z,100.00
2023-01-07T06:03:32.581Z,100.00
2023-01-07T06:05:59.384Z,100.00
2023-01-07T06:08:25.798Z,100.00
2023-01-07T06:10:52.701Z,100.00
2023-01-07T06:13:19.158Z,100.00
2023-01-07T06:15:45.957Z,100.00
2023-01-07T06:18:13.169Z,100.00
2023-01-07T06:20:39.638Z,100.00
2023-01-07T06:23:06.792Z,100.00
2023-01-07T06:25:33.332Z,100.00
2023-01-07T06:28:00.007Z,100.00
2023-01-07T06:30:27.082Z,100.00
2023-01-07T06:32:54.242Z,100.00
2023-01-07T06:35:21.044Z,100.00
2023-01-07T06:37:47.745Z,100.00
2023-01-07T06:40:14.523Z,100.00
2023-01-07T06:42:41.162Z,100.00
2023-01-07T06:45:08.831Z,100.00
2023-01-07T06:47:35.261Z,100.00
2023-01-07T06:50:02.751Z,100.00
2023-01-07T06:52:29.252Z,100.00
2023-01-07T06:54:55.902Z,100.00
2023-01-07T06:57:22.973Z,100.00
2023-01-07T06:59:49.484Z,100.00
2023-01-07T07:02:22.395Z,100.00
2023-01-07T07:04:49.401Z,100.00
2023-01-07T07:07:17.083Z,100.00
2023-01-07T07:09:43.671Z,100.00
2023-01-07T07:12:10.759Z,100.00
2023-01-07T07:14:37.769Z,100.00
2023-01-07T07:17:05.477Z,100.00
2023-01-07T07:19:32.173Z,100.00
2023-01-07T07:21:59.409Z,100.00
2023-01-07T07:24:25.936Z,100.00
2023-01-07T07:26:52.892Z,100.00
2023-01-07T07:29:21.648Z,100.00
2023-01-07T07:31:48.169Z,100.00
2023-01-07T07:34:14.907Z,100.00
2023-01-07T07:36:41.663Z,100.00
2023-01-07T07:39:08.140Z,100.00
2023-01-07T07:41:34.791Z,100.00
2023-01-07T07:44:07.178Z,100.00
2023-01-07T07:46:33.759Z,100.00
2023-01-07T07:49:00.652Z,100.00
2023-01-07T07:51:27.508Z,100.00
2023-01-07T07:53:54.205Z,100.00
2023-01-07T07:56:21.070Z,100.00
2023-01-07T07:58:48.091Z,100.00
2023-01-07T08:01:14.648Z,100.00
2023-01-07T08:03:41.583Z,100.00
2023-01-07T08:06:10.806Z,100.00
2023-01-07T08:08:37.510Z,100.00
2023-01-07T08:11:05.250Z,100.00
2023-01-07T08:13:31.859Z,100.00
2023-01-07T08:15:59.105Z,100.00
2023-01-07T08:18:25.588Z,100.00
2023-01-07T08:20:52.327Z,100.00
2023-01-07T08:23:19.372Z,100.00
2023-01-07T08:25:46.159Z,100.00
2023-01-07T08:28:12.909Z,100.00
2023-01-07T08:30:39.967Z,100.00
2023-01-07T08:33:07.973Z,100.00
2023-01-07T08:35:35.757Z,100.00
2023-01-07T08:38:08.189Z,100.00
2023-01-07T08:40:35.464Z,100.00
2023-01-07T08:43:04.732Z,100.00
2023-01-07T08:45:31.751Z,100.00
2023-01-07T08:47:58.966Z,100.00
2023-01-07T08:50:27.726Z,100.00
2023-01-07T08:52:54.952Z,100.00
2023-01-07T08:55:22.528Z,100.00
2023-01-07T08:57:49.443Z,100.00
2023-01-07T09:00:17.964Z,100.00
2023-01-07T09:02:44.563Z,100.00
2023-01-07T09:05:11.764Z,100.00
2023-01-07T09:07:38.753Z,100.00
2023-01-07T09:10:06.358Z,100.00
2023-01-07T09:12:33.174Z,100.00
2023-01-07T09:15:00.612Z,100.00
2023-01-07T09:17:27.876Z,100.00
2023-01-07T09:19:54.723Z,100.00
2023-01-07T09:22:21.878Z,100.00
2023-01-07T09:24:48.435Z,100.00
2023-01-07T09:27:16.841Z,100.00
2023-01-07T09:29:43.649Z,100.00
2023-01-07T09:32:10.923Z,100.00
2023-01-07T09:34:38.282Z,100.00
2023-01-07T09:37:05.990Z,100.00
2023-01-07T09:39:32.927Z,100.00
2023-01-07T09:42:42.157Z,100.00
2023-01-07T09:45:16.653Z,100.00
2023-01-07T09:47:48.404Z,100.00
2023-01-07T09:50:29.345Z,100.00
2023-01-07T09:53:00.651Z,100.00
2023-01-07T09:55:38.927Z,100.00
2023-01-07T09:58:27.121Z,100.00
2023-01-07T10:01:16.154Z,100.00
2023-01-07T10:03:55.985Z,100.00
2023-01-07T10:06:43.850Z,100.00
2023-01-07T10:09:34.675Z,100.00
2023-01-07T10:12:17.104Z,100.00
2023-01-07T10:14:49.907Z,100.00
2023-01-07T10:17:35.138Z,100.00
2023-01-07T10:20:26.682Z,100.00
2023-01-07T10:23:02.845Z,100.00
2023-01-07T10:25:39.876Z,100.00
2023-01-07T10:28:13.433Z,100.00
2023-01-07T10:30:44.499Z,100.00
2023-01-07T10:33:31.759Z,99.01
2023-01-07T10:36:08.853Z,100.00
2023-01-07T10:38:41.782Z,100.00
2023-01-07T10:41:19.252Z,100.00
2023-01-07T10:44:11.324Z,100.00
2023-01-07T10:46:44.052Z,100.00
2023-01-07T10:49:25.253Z,100.00
2023-01-07T10:52:23.790Z,100.00
2023-01-07T10:55:16.443Z,100.00
2023-01-07T10:57:44.417Z,100.00
2023-01-07T11:00:15.620Z,99.64
2023-01-07T11:02:46.313Z,100.00
2023-01-07T11:05:14.778Z,100.00
2023-01-07T11:07:50.717Z,100.00
2023-01-07T11:10:20.859Z,100.00
2023-01-07T11:13:12.667Z,100.00
2023-01-07T11:15:47.723Z,100.00
2023-01-07T11:18:24.442Z,99.80
2023-01-07T11:20:53.794Z,100.00
2023-01-07T11:23:32.308Z,100.00
2023-01-07T11:26:25.354Z,100.00
2023-01-07T11:29:01.033Z,100.00
2023-01-07T11:31:51.219Z,100.00
2023-01-07T11:34:23.847Z,100.00
2023-01-07T11:36:52.065Z,100.00
2023-01-07T11:39:25.852Z,100.00
2023-01-07T11:42:22.782Z,100.00
2023-01-07T11:44:49.552Z,100.00
2023-01-07T11:47:18.258Z,100.00
2023-01-07T11:49:46.036Z,99.92
2023-01-07T11:52:20.304Z,98.72
2023-01-07T11:54:52.273Z,99.47
2023-01-07T11:57:25.297Z,98.94
2023-01-07T12:00:13.608Z,98.46
2023-01-07T12:02:40.417Z,98.34
2023-01-07T12:05:24.384Z,96.44
2023-01-07T12:07:51.665Z,94.93
2023-01-07T12:10:37.123Z,97.99
2023-01-07T12:13:15.636Z,96.45
2023-01-07T12:15:54.481Z,95.53
2023-01-07T12:18:39.792Z,94.73
2023-01-07T12:21:25.270Z,91.72
2023-01-07T12:24:04.399Z,92.86
2023-01-07T12:27:03.097Z,89.06
2023-01-07T12:29:54.374Z,89.67
2023-01-07T12:32:30.707Z,89.32
2023-01-07T12:35:15.091Z,92.68
2023-01-07T12:38:09.507Z,88.01
2023-01-07T12:40:57.953Z,89.26
2023-01-07T12:43:37.015Z,90.08
2023-01-07T12:46:16.996Z,86.94
2023-01-07T12:49:20.083Z,88.94
2023-01-07T12:52:05.640Z,86.76
2023-01-07T12:55:29.335Z,85.56
2023-01-07T12:58:35.394Z,86.55
2023-01-07T13:01:33.190Z,85.31
2023-01-07T13:04:12.884Z,84.91
2023-01-07T13:06:50.455Z,82.75
2023-01-07T13:09:44.987Z,83.87
2023-01-07T13:12:42.291Z,84.21
2023-01-07T13:15:21.701Z,80.33
2023-01-07T13:17:54.225Z,77.30
2023-01-07T13:20:48.800Z,77.63
2023-01-07T13:23:23.143Z,78.13
2023-01-07T13:26:25.325Z,74.22
2023-01-07T13:28:58.808Z,76.58
2023-01-07T13:31:34.674Z,79.05
2023-01-07T13:34:14.309Z,75.24
2023-01-07T13:37:08.182Z,69.99
2023-01-07T13:39:50.286Z,70.95
2023-01-07T13:42:25.305Z,70.61
2023-01-07T13:45:09.920Z,70.59
2023-01-07T13:47:43.431Z,69.46
2023-01-07T13:50:20.636Z,72.17
2023-01-07T13:53:00.160Z,73.77
2023-01-07T13:55:40.417Z,77.10
2023-01-07T13:58:46.786Z,78.90
2023-01-07T14:01:18.627Z,80.87
2023-01-07T14:03:46.977Z,81.03
2023-01-07T14:06:19.885Z,82.52
2023-01-07T14:08:53.978Z,80.23
2023-01-07T14:11:52.460Z,80.80
2023-01-07T14:14:34.199Z,78.91
2023-01-07T14:17:20.244Z,78.44
2023-01-07T14:20:02.066Z,79.20
2023-01-07T14:22:52.995Z,78.65
2023-01-07T14:26:14.479Z,79.72
2023-01-07T14:28:46.600Z,80.67
2023-01-07T14:31:23.411Z,83.20
2023-01-07T14:33:54.224Z,81.23
2023-01-07T14:36:21.027Z,84.27
2023-01-07T14:38:58.273Z,82.44
2023-01-07T14:41:25.782Z,85.24
2023-01-07T14:44:02.267Z,83.36
2023-01-07T14:46:38.302Z,84.01
2023-01-07T14:49:05.341Z,84.81
2023-01-07T14:51:43.250Z,84.75
2023-01-07T14:54:48.111Z,85.67
2023-01-07T14:57:20.909Z,83.75
2023-01-07T15:00:24.967Z,85.99
2023-01-07T15:03:13.140Z,86.51
2023-01-07T15:06:11.344Z,85.96
2023-01-07T15:09:18.289Z,85.01
2023-01-07T15:12:04.578Z,89.16
2023-01-07T15:15:01.287Z,88.54
2023-01-07T15:17:28.114Z,89.80
2023-01-07T15:19:55.518Z,89.82
2023-01-07T15:22:39.613Z,89.69
2023-01-07T15:25:15.688Z,91.95
2023-01-07T15:28:07.455Z,93.33
2023-01-07T15:30:41.190Z,93.73
2023-01-07T15:33:33.341Z,94.10
2023-01-07T15:36:04.303Z,94.00
2023-01-07T15:38:38.043Z,95.38
2023-01-07T15:41:05.370Z,96.64
2023-01-07T15:43:32.058Z,97.96
2023-01-07T15:46:05.239Z,99.87
2023-01-07T15:48:32.258Z,100.00
2023-01-07T15:51:00.589Z,100.00
2023-01-07T15:53:29.304Z,100.00
2023-01-07T15:56:02.011Z,100.00
2023-01-07T15:58:40.289Z,100.00
2023-01-07T16:01:15.109Z,100.00
2023-01-07T16:03:42.288Z,100.00
2023-01-07T16:06:39.432Z,100.00
2023-01-07T16:09:21.414Z,100.00
2023-01-07T16:11:48.232Z,100.00
2023-01-07T16:14:17.828Z,100.00
2023-01-07T16:16:44.676Z,100.00
2023-01-07T16:19:20.170Z,100.00
2023-01-07T16:21:52.981Z,100.00
2023-01-07T16:24:19.507Z,100.00
2023-01-07T16:26:57.792Z,100.00
2023-01-07T16:29:28.425Z,100.00
2023-01-07T16:31:55.833Z,100.00
2023-01-07T16:34:25.253Z,100.00
2023-01-07T16:36:58.293Z,100.00
2023-01-07T16:39:39.543Z,100.00
2023-01-07T16:42:23.507Z,100.00
2023-01-07T16:44:53.613Z,100.00
2023-01-07T16:47:32.434Z,100.00
2023-01-07T16:50:19.878Z,100.00
2023-01-07T16:52:54.821Z,100.00
2023-01-07T16:55:48.239Z,100.00
2023-01-07T16:58:40.566Z,100.00
2023-01-07T17:01:09.663Z,100.00
2023-01-07T17:03:46.781Z,100.00
2023-01-07T17:06:13.912Z,100.00
2023-01-07T17:08:48.668Z,100.00
2023-01-07T17:11:29.133Z,100.00
2023-01-07T17:13:55.503Z,100.00
2023-01-07T17:16:28.351Z,100.00
2023-01-07T17:18:55.729Z,100.00
2023-01-07T17:21:42.746Z,100.00
2023-01-07T17:24:30.778Z,100.00
2023-01-07T17:27:03.578Z,100.00
2023-01-07T17:29:34.807Z,100.00
2023-01-07T17:32:04.524Z,100.00
2023-01-07T17:34:31.543Z,100.00
2023-01-07T17:36:57.994Z,100.00
2023-01-07T17:39:24.642Z,100.00
2023-01-07T17:42:09.834Z,100.00
2023-01-07T17:44:37.033Z,100.00
2023-01-07T17:47:03.789Z,100.00
2023-01-07T17:49:30.293Z,100.00
2023-01-07T17:51:56.784Z,100.00
2023-01-07T17:54:25.261Z,100.00
2023-01-07T17:56:52.562Z,100.00
2023-01-07T17:59:22.335Z,100.00
2023-01-07T18:01:51.893Z,100.00
2023-01-07T18:04:18.618Z,100.00
2023-01-07T18:06:45.544Z,100.00
2023-01-07T18:09:13.434Z,100.00
2023-01-07T18:12:01.830Z,100.00
2023-01-07T18:14:28.287Z,100.00
2023-01-07T18:16:57.350Z,100.00
2023-01-07T18:19:24.338Z,100.00
2023-01-07T18:21:50.765Z,100.00
2023-01-07T18:24:20.245Z,100.00
2023-01-07T18:26:47.995Z,100.00
2023-01-07T18:29:14.598Z,100.00
2023-01-07T18:31:43.831Z,100.00
2023-01-07T18:34:12.403Z,100.00
2023-01-07T18:36:39.872Z,100.00
2023-01-07T18:39:10.062Z,100.00
2023-01-07T18:41:39.359Z,100.00
2023-01-07T18:44:06.111Z,100.00
2023-01-07T18:46:32.855Z,100.00
2023-01-07T18:48:59.927Z,100.00
2023-01-07T18:51:26.504Z,100.00
2023-01-07T18:53:52.947Z,100.00
2023-01-07T18:56:20.237Z,100.00
2023-01-07T18:58:46.900Z,100.00
2023-01-07T19:01:13.580Z,100.00
2023-01-07T19:03:40.340Z,100.00
2023-01-07T19:06:08.411Z,100.00
2023-01-07T19:08:35.834Z,100.00
2023-01-07T19:11:05.987Z,100.00
2023-01-07T19:13:32.480Z,100.00
2023-01-07T19:15:59.173Z,100.00
2023-01-07T19:18:25.795Z,100.00
2023-01-07T19:20:52.319Z,100.00
2023-01-07T19:23:19.342Z,100.00
2023-01-07T19:25:57.132Z,100.00
2023-01-07T19:28:23.813Z,100.00
2023-01-07T19:30:50.242Z,100.00
2023-01-07T19:33:16.689Z,100.00
2023-01-07T19:35:43.929Z,100.00
2023-01-07T19:38:12.505Z,100.00
2023-01-07T19:40:44.240Z,100.00
2023-01-07T19:43:13.788Z,100.00
2023-01-07T19:45:40.689Z,100.00
2023-01-07T19:48:07.444Z,100.00
2023-01-07T19:50:34.199Z,100.00
2023-01-07T19:53:00.944Z,100.00
2023-01-07T19:55:27.740Z,100.00
2023-01-07T19:57:55.308Z,100.00
2023-01-07T20:00:21.899Z,100.00
2023-01-07T20:02:48.372Z,100.00
2023-01-07T20:05:15.093Z,100.00
2023-01-07T20:07:41.846Z,100.00
2023-01-07T20:10:08.617Z,100.00
2023-01-07T20:12:35.093Z,100.00
2023-01-07T20:15:01.546Z,100.00
2023-01-07T20:17:29.373Z,100.00
2023-01-07T20:19:55.847Z,100.00
2023-01-07T20:22:22.300Z,100.00
2023-01-07T20:24:49.100Z,100.00
2023-01-07T20:27:15.527Z,100.00
2023-01-07T20:29:42.204Z,100.00
2023-01-07T20:32:09.108Z,100.00
2023-01-07T20:34:35.805Z,100.00
2023-01-07T20:37:02.344Z,100.00
2023-01-07T20:39:29.017Z,100.00
2023-01-07T20:41:55.476Z,100.00
2023-01-07T20:44:21.948Z,100.00
2023-01-07T20:46:48.388Z,100.00
2023-01-07T20:49:15.705Z,100.00
2023-01-07T20:51:42.470Z,100.00
2023-01-07T20:54:09.532Z,100.00
2023-01-07T20:56:36.196Z,100.00
2023-01-07T20:59:03.906Z,100.00
2023-01-07T21:01:30.856Z,100.00
2023-01-07T21:03:57.701Z,100.00
2023-01-07T21:06:24.428Z,100.00
2023-01-07T21:08:51.010Z,100.00
2023-01-07T21:11:23.523Z,100.00
2023-01-07T21:13:51.261Z,100.00
2023-01-07T21:16:18.573Z,100.00
2023-01-07T21:18:45.511Z,100.00
2023-01-07T21:21:15.282Z,100.00
2023-01-07T21:23:42.263Z,100.00
2023-01-07T21:26:09.391Z,100.00
2023-01-07T21:28:37.087Z,100.00
2023-01-07T21:31:08.477Z,100.00
2023-01-07T21:33:36.016Z,100.00
2023-01-07T21:36:19.356Z,100.00
2023-01-07T21:38:46.769Z,100.00
2023-01-07T21:41:15.625Z,100.00
2023-01-07T21:43:43.097Z,100.00
2023-01-07T21:46:10.456Z,100.00
2023-01-07T21:48:39.456Z,100.00
2023-01-07T21:51:08.526Z,99.80
2023-01-07T21:53:35.653Z,100.00
2023-01-07T21:56:07.632Z,100.00
2023-01-07T21:58:35.936Z,100.00
2023-01-07T22:01:04.578Z,100.00
2023-01-07T22:03:31.617Z,100.00
2023-01-07T22:05:59.975Z,100.00
2023-01-07T22:08:27.092Z,100.00
2023-01-07T22:10:53.808Z,100.00
2023-01-07T22:13:21.284Z,100.00
2023-01-07T22:15:48.274Z,100.00
2023-01-07T22:18:15.349Z,100.00
2023-01-07T22:20:42.079Z,100.00
2023-01-07T22:23:16.766Z,100.00
2023-01-07T22:25:43.389Z,100.00
2023-01-07T22:28:10.334Z,100.00
2023-01-07T22:30:39.996Z,100.00
2023-01-07T22:33:06.416Z,100.00
2023-01-07T22:35:34.784Z,100.00
2023-01-07T22:38:02.624Z,100.00
2023-01-07T22:40:32.404Z,100.00
2023-01-07T22:43:04.297Z,100.00
2023-01-07T22:45:41.500Z,100.00
2023-01-07T22:48:11.645Z,100.00
2023-01-07T22:50:39.218Z,100.00
2023-01-07T22:53:07.513Z,100.00
2023-01-07T22:55:34.185Z,100.00
2023-01-07T22:58:01.488Z,100.00
2023-01-07T23:00:52.348Z,100.00
2023-01-07T23:03:20.182Z,100.00
2023-01-07T23:05:46.774Z,100.00
2023-01-07T23:08:13.562Z,100.00
2023-01-07T23:10:40.784Z,100.00
2023-01-07T23:13:07.579Z,100.00
2023-01-07T23:15:35.500Z,100.00
2023-01-07T23:18:02.594Z,100.00
2023-01-07T23:20:29.256Z,100.00
2023-01-07T23:22:55.721Z,100.00
2023-01-07T23:25:22.645Z,100.00
2023-01-07T23:27:49.771Z,100.00
2023-01-07T23:30:16.333Z,100.00
2023-01-07T23:32:42.874Z,100.00
2023-01-07T23:35:09.465Z,100.00
2023-01-07T23:37:36.333Z,100.00
2023-01-07T23:40:02.973Z,100.00
2023-01-07T23:42:29.540Z,100.00
2023-01-07T23:44:56.016Z,100.00
2023-01-07T23:47:23.289Z,100.00
2023-01-07T23:49:49.964Z,100.00
2023-01-07T23:52:17.039Z,100.00
2023-01-07T23:54:43.702Z,100.00
2023-01-07T23:57:10.165Z,100.00
2023-01-07T23:59:38.195Z,100.00
